createdAt,value
2018-09-06T00:01:42.353Z,98862.97
2018-09-06T00:04:16.939Z,98859.36
2018-09-06T00:06:51.582Z,98862.50
2018-09-06T00:09:26.241Z,98854.12
2018-09-06T00:12:01.292Z,98844.01
2018-09-06T00:14:35.725Z,98846.67
2018-09-06T00:17:10.269Z,98844.29
2018-09-06T00:19:44.881Z,98841.05
2018-09-06T00:22:19.422Z,98839.67
2018-09-06T00:24:53.976Z,98838.88
2018-09-06T00:27:28.510Z,98838.23
2018-09-06T00:30:03.098Z,98831.20
2018-09-06T00:32:37.606Z,98832.73
2018-09-06T00:35:12.273Z,98832.16
2018-09-06T00:37:47.010Z,98824.41
2018-09-06T00:40:21.703Z,98816.89
2018-09-06T00:42:56.197Z,98813.72
2018-09-06T00:45:30.886Z,98807.78
2018-09-06T00:48:05.488Z,98806.93
2018-09-06T00:50:40.815Z,98804.33
2018-09-06T00:53:15.397Z,98802.01
2018-09-06T00:55:50.039Z,98801.46
2018-09-06T00:58:24.946Z,98801.40
2018-09-06T01:00:59.369Z,98802.86
2018-09-06T01:03:34.029Z,98802.80
2018-09-06T01:06:08.693Z,98803.86
2018-09-06T01:08:43.572Z,98798.05
2018-09-06T01:11:18.516Z,98802.17
2018-09-06T01:13:53.537Z,98801.02
2018-09-06T01:16:28.572Z,98794.14
2018-09-06T01:19:03.280Z,98794.60
2018-09-06T01:21:38.200Z,98789.31
2018-09-06T01:24:13.472Z,98784.09
2018-09-06T01:26:48.335Z,98787.36
2018-09-06T01:29:23.301Z,98786.41
2018-09-06T01:31:57.915Z,98784.09
2018-09-06T01:34:32.693Z,98784.67
2018-09-06T01:37:09.348Z,98777.58
2018-09-06T01:39:44.187Z,98774.89
2018-09-06T01:42:18.956Z,98770.64
2018-09-06T01:44:53.862Z,98775.99
2018-09-06T01:47:28.323Z,98772.08
2018-09-06T01:50:02.926Z,98776.94
2018-09-06T01:52:38.226Z,98779.23
2018-09-06T01:55:13.176Z,98775.94
2018-09-06T01:57:47.833Z,98778.47
2018-09-06T02:00:22.249Z,98784.62
2018-09-06T02:02:56.810Z,98791.70
2018-09-06T02:05:35.541Z,98800.69
2018-09-06T02:08:10.074Z,98811.39
2018-09-06T02:10:45.068Z,98813.92
2018-09-06T02:13:19.720Z,98812.49
2018-09-06T02:15:54.558Z,98805.46
2018-09-06T02:18:29.193Z,98816.55
2018-09-06T02:21:03.956Z,98824.49
2018-09-06T02:23:38.593Z,98835.28
2018-09-06T02:26:13.541Z,98826.35
2018-09-06T02:28:48.319Z,98821.15
2018-09-06T02:31:22.899Z,98817.45
2018-09-06T02:33:57.883Z,98819.77
2018-09-06T02:36:32.403Z,98821.38
2018-09-06T02:39:07.760Z,98815.86
2018-09-06T02:41:42.385Z,98809.20
2018-09-06T02:44:36.326Z,98817.89
2018-09-06T02:47:11.003Z,98817.17
2018-09-06T02:49:53.293Z,98804.37
2018-09-06T02:52:27.889Z,98795.26
2018-09-06T02:55:02.761Z,98791.25
2018-09-06T02:57:37.607Z,98801.45
2018-09-06T03:00:12.164Z,98792.19
2018-09-06T03:02:46.878Z,98797.03
2018-09-06T03:05:21.660Z,98795.94
2018-09-06T03:07:57.624Z,98784.73
2018-09-06T03:10:38.844Z,98785.23
2018-09-06T03:13:13.390Z,98783.00
2018-09-06T03:15:47.966Z,98780.25
2018-09-06T03:18:22.978Z,98777.58
2018-09-06T03:20:57.524Z,98772.59
2018-09-06T03:23:32.403Z,98773.28
2018-09-06T03:26:12.249Z,98773.85
2018-09-06T03:28:49.626Z,98766.98
2018-09-06T03:31:24.162Z,98759.11
2018-09-06T03:34:11.742Z,98764.24
2018-09-06T03:36:46.284Z,98766.33
2018-09-06T03:39:20.847Z,98759.25
2018-09-06T03:41:55.318Z,98764.06
2018-09-06T03:44:30.247Z,98760.63
2018-09-06T03:47:04.682Z,98750.15
2018-09-06T03:49:39.427Z,98755.20
2018-09-06T03:52:14.162Z,98754.59
2018-09-06T03:54:48.873Z,98772.23
2018-09-06T03:57:23.481Z,98784.89
2018-09-06T03:59:58.353Z,98804.84
2018-09-06T04:02:33.165Z,98804.89
2018-09-06T04:05:21.968Z,98800.39
2018-09-06T04:08:10.133Z,98789.31
2018-09-06T04:10:44.937Z,98807.45
2018-09-06T04:13:19.981Z,98812.42
2018-09-06T04:15:55.702Z,98817.78
2018-09-06T04:18:30.232Z,98822.03
2018-09-06T04:21:10.849Z,98819.33
2018-09-06T04:23:45.628Z,98817.30
2018-09-06T04:26:20.510Z,98828.29
2018-09-06T04:28:55.160Z,98831.61
2018-09-06T04:31:29.863Z,98823.52
2018-09-06T04:34:04.521Z,98816.79
2018-09-06T04:36:39.480Z,98814.31
2018-09-06T04:39:14.260Z,98808.38
2018-09-06T04:41:48.889Z,98811.92
2018-09-06T04:44:24.016Z,98815.77
2018-09-06T04:46:58.766Z,98804.71
2018-09-06T04:49:33.817Z,98799.22
2018-09-06T04:52:08.339Z,98808.25
2018-09-06T04:54:43.026Z,98807.36
2018-09-06T04:57:17.694Z,98808.47
2018-09-06T04:59:52.346Z,98810.50
2018-09-06T05:02:26.952Z,98804.66
2018-09-06T05:05:01.587Z,98801.48
2018-09-06T05:07:36.368Z,98796.26
2018-09-06T05:10:10.954Z,98786.08
2018-09-06T05:12:45.589Z,98790.73
2018-09-06T05:15:20.296Z,98787.67
2018-09-06T05:17:54.992Z,98788.70
2018-09-06T05:20:29.604Z,98791.57
2018-09-06T05:23:04.929Z,98802.98
2018-09-06T05:25:39.743Z,98796.22
2018-09-06T05:28:14.273Z,98781.35
2018-09-06T05:30:48.928Z,98775.11
2018-09-06T05:33:23.702Z,98772.16
2018-09-06T05:35:58.513Z,98768.39
2018-09-06T05:38:33.181Z,98764.02
2018-09-06T05:41:07.913Z,98756.95
2018-09-06T05:43:42.449Z,98754.25
2018-09-06T05:46:17.295Z,98754.25
2018-09-06T05:48:51.906Z,98751.33
2018-09-06T05:51:27.002Z,98751.55
2018-09-06T05:54:01.588Z,98750.76
2018-09-06T05:56:36.191Z,98759.29
2018-09-06T05:59:10.831Z,98752.66
2018-09-06T06:01:45.538Z,98751.46
2018-09-06T06:04:20.240Z,98746.67
2018-09-06T06:06:54.928Z,98745.30
2018-09-06T06:09:29.491Z,98738.66
2018-09-06T06:12:04.575Z,98726.10
2018-09-06T06:14:39.388Z,98726.71
2018-09-06T06:17:13.940Z,98722.68
2018-09-06T06:19:48.675Z,98729.67
2018-09-06T06:22:23.293Z,98743.52
2018-09-06T06:24:58.088Z,98742.06
2018-09-06T06:27:32.847Z,98744.49
2018-09-06T06:30:07.353Z,98740.02
2018-09-06T06:32:42.025Z,98745.74
2018-09-06T06:35:16.783Z,98746.98
2018-09-06T06:37:51.263Z,98751.58
2018-09-06T06:40:25.937Z,98765.16
2018-09-06T06:43:00.511Z,98761.44
2018-09-06T06:45:35.165Z,98751.13
2018-09-06T06:48:09.673Z,98750.03
2018-09-06T06:50:44.156Z,98741.29
2018-09-06T06:53:18.819Z,98738.75
2018-09-06T06:55:53.327Z,98735.60
2018-09-06T06:58:27.949Z,98735.11
2018-09-06T07:01:02.776Z,98750.42
2018-09-06T07:03:37.386Z,98748.12
2018-09-06T07:06:11.981Z,98740.98
2018-09-06T07:08:46.564Z,98740.62
2018-09-06T07:11:21.258Z,98741.48
2018-09-06T07:13:55.963Z,98747.45
2018-09-06T07:16:30.584Z,98741.84
2018-09-06T07:19:05.249Z,98741.84
2018-09-06T07:21:39.861Z,98746.62
2018-09-06T07:24:14.496Z,98758.03
2018-09-06T07:26:49.132Z,98769.09
2018-09-06T07:29:23.654Z,98770.55
2018-09-06T07:31:58.551Z,98769.84
2018-09-06T07:34:33.218Z,98770.82
2018-09-06T07:37:07.760Z,98766.98
2018-09-06T07:39:42.739Z,98754.77
2018-09-06T07:45:16.883Z,98754.55
2018-09-06T07:47:51.886Z,98745.08
2018-09-06T07:50:26.523Z,98739.46
2018-09-06T07:53:01.365Z,98742.34
2018-09-06T07:55:36.088Z,98740.19
2018-09-06T07:58:10.992Z,98745.31
2018-09-06T08:00:45.461Z,98743.80
2018-09-06T08:03:25.744Z,98745.51
2018-09-06T08:06:00.744Z,98749.27
2018-09-06T08:08:35.168Z,98753.38
2018-09-06T08:11:19.977Z,98749.84
2018-09-06T08:13:54.481Z,98744.22
2018-09-06T08:16:29.503Z,98735.50
2018-09-06T08:19:04.107Z,98734.70
2018-09-06T08:21:38.812Z,98731.59
2018-09-06T08:24:13.438Z,98744.66
2018-09-06T08:26:48.114Z,98755.12
2018-09-06T08:29:22.849Z,98758.46
2018-09-06T08:31:57.424Z,98755.56
2018-09-06T08:34:31.893Z,98760.22
2018-09-06T08:37:07.195Z,98756.26
2018-09-06T08:39:42.187Z,98762.19
2018-09-06T08:42:17.117Z,98756.38
2018-09-06T08:44:51.807Z,98749.30
2018-09-06T08:47:27.073Z,98752.28
2018-09-06T08:50:01.652Z,98754.86
2018-09-06T08:52:36.128Z,98760.78
2018-09-06T08:55:11.241Z,98763.03
2018-09-06T08:57:46.109Z,98766.66
2018-09-06T09:00:20.772Z,98766.57
2018-09-06T09:02:55.429Z,98765.65
2018-09-06T09:05:30.317Z,98768.59
2018-09-06T09:08:05.645Z,98769.27
2018-09-06T09:10:40.317Z,98769.76
2018-09-06T09:13:14.898Z,98772.84
2018-09-06T09:15:49.907Z,98762.08
2018-09-06T09:18:24.377Z,98762.02
2018-09-06T09:20:58.998Z,98757.19
2018-09-06T09:23:33.473Z,98762.11
2018-09-06T09:26:08.126Z,98769.69
2018-09-06T09:28:42.652Z,98764.55
2018-09-06T09:31:17.300Z,98763.55
2018-09-06T09:33:59.960Z,98755.45
2018-09-06T09:36:34.792Z,98754.30
2018-09-06T09:39:10.357Z,98754.84
2018-09-06T09:41:45.220Z,98754.45
2018-09-06T09:44:33.014Z,98747.51
2018-09-06T09:49:41.473Z,98739.91
2018-09-06T09:52:16.001Z,98741.72
2018-09-06T09:54:50.770Z,98745.58
2018-09-06T09:57:25.422Z,98741.95
2018-09-06T09:59:59.903Z,98741.38
2018-09-06T10:02:39.823Z,98732.62
2018-09-06T10:05:19.833Z,98733.21
2018-09-06T10:07:55.788Z,98732.04
2018-09-06T10:10:30.290Z,98734.64
2018-09-06T10:13:04.841Z,98734.42
2018-09-06T10:15:40.087Z,98737.61
2018-09-06T10:18:14.802Z,98736.09
2018-09-06T10:20:49.524Z,98739.55
2018-09-06T10:23:24.422Z,98740.34
2018-09-06T10:25:59.204Z,98738.78
2018-09-06T10:28:33.773Z,98742.39
2018-09-06T10:31:08.610Z,98739.84
2018-09-06T10:33:43.388Z,98736.95
2018-09-06T10:36:18.345Z,98747.22
2018-09-06T10:38:53.043Z,98751.27
2018-09-06T10:41:27.712Z,98751.91
2018-09-06T10:44:02.564Z,98745.91
2018-09-06T10:46:37.217Z,98744.47
2018-09-06T10:49:11.810Z,98745.52
2018-09-06T10:51:46.636Z,98752.92
2018-09-06T10:54:21.237Z,98751.03
2018-09-06T10:56:55.789Z,98751.67
2018-09-06T10:59:30.809Z,98752.33
2018-09-06T11:02:05.556Z,98752.05
2018-09-06T11:04:40.300Z,98744.89
2018-09-06T11:07:14.888Z,98746.19
2018-09-06T11:09:49.591Z,98738.11
2018-09-06T11:12:30.412Z,98735.69
2018-09-06T11:15:16.731Z,98726.01
2018-09-06T11:18:10.766Z,98721.63
2018-09-06T11:20:45.893Z,98718.52
2018-09-06T11:23:20.587Z,98711.51
2018-09-06T11:25:55.105Z,98716.28
2018-09-06T11:28:29.682Z,98714.98
2018-09-06T11:31:04.448Z,98710.28
2018-09-06T11:33:39.159Z,98713.83
2018-09-06T11:36:13.849Z,98702.77
2018-09-06T11:38:48.668Z,98705.86
2018-09-06T11:41:23.125Z,98705.14
2018-09-06T11:43:58.000Z,98709.91
2018-09-06T11:46:32.606Z,98715.03
2018-09-06T11:49:07.021Z,98714.18
2018-09-06T11:51:41.594Z,98712.87
2018-09-06T11:54:16.211Z,98713.00
2018-09-06T11:56:50.998Z,98713.80
2018-09-06T11:59:26.027Z,98713.63
2018-09-06T12:02:00.500Z,98709.50
2018-09-06T12:04:35.147Z,98713.67
2018-09-06T12:07:10.129Z,98711.14
2018-09-06T12:09:44.681Z,98709.07
2018-09-06T12:12:19.443Z,98707.60
2018-09-06T12:14:54.116Z,98700.98
2018-09-06T12:17:28.947Z,98696.89
2018-09-06T12:20:03.581Z,98699.70
2018-09-06T12:22:38.521Z,98705.02
2018-09-06T12:25:13.377Z,98690.05
2018-09-06T12:27:48.248Z,98689.47
2018-09-06T12:30:23.305Z,98694.89
2018-09-06T12:32:58.200Z,98689.17
2018-09-06T12:35:32.807Z,98682.09
2018-09-06T12:38:07.494Z,98687.16
2018-09-06T12:40:42.096Z,98689.03
2018-09-06T12:43:17.013Z,98685.98
2018-09-06T12:45:51.457Z,98692.43
2018-09-06T12:48:25.910Z,98691.88
2018-09-06T12:51:00.364Z,98692.03
2018-09-06T12:53:35.023Z,98687.26
2018-09-06T12:56:09.611Z,98686.58
2018-09-06T12:58:44.841Z,98676.36
2018-09-06T13:01:19.472Z,98677.20
2018-09-06T13:03:54.107Z,98666.97
2018-09-06T13:06:29.336Z,98669.63
2018-09-06T13:09:05.796Z,98661.30
2018-09-06T13:11:40.476Z,98662.11
2018-09-06T13:14:14.953Z,98655.23
2018-09-06T13:16:49.649Z,98648.33
2018-09-06T13:19:24.263Z,98639.87
2018-09-06T13:21:58.905Z,98640.10
2018-09-06T13:24:33.596Z,98638.49
2018-09-06T13:27:08.384Z,98643.15
2018-09-06T13:29:43.587Z,98644.95
2018-09-06T13:32:17.958Z,98645.77
2018-09-06T13:34:52.429Z,98648.03
2018-09-06T13:37:27.143Z,98645.95
2018-09-06T13:40:01.998Z,98645.84
2018-09-06T13:42:36.573Z,98647.11
2018-09-06T13:45:11.155Z,98643.03
2018-09-06T13:47:45.772Z,98640.07
2018-09-06T13:50:20.336Z,98642.41
2018-09-06T13:55:52.218Z,98631.94
2018-09-06T13:58:26.880Z,98622.86
2018-09-06T14:01:01.477Z,98620.98
2018-09-06T14:03:36.395Z,98625.25
2018-09-06T14:06:11.448Z,98633.80
2018-09-06T14:08:46.677Z,98632.48
2018-09-06T14:11:21.314Z,98639.32
2018-09-06T14:13:55.884Z,98637.13
2018-09-06T14:16:30.986Z,98630.38
2018-09-06T14:19:05.741Z,98634.78
2018-09-06T14:21:45.233Z,98638.71
2018-09-06T14:24:19.965Z,98629.09
2018-09-06T14:26:54.944Z,98626.64
2018-09-06T14:29:30.188Z,98622.45
2018-09-06T14:32:04.926Z,98623.38
2018-09-06T14:34:39.677Z,98615.28
2018-09-06T14:37:14.165Z,98608.55
2018-09-06T14:39:49.190Z,98610.59
2018-09-06T14:42:29.560Z,98603.88
2018-09-06T14:45:05.107Z,98596.06
2018-09-06T14:47:40.110Z,98582.09
2018-09-06T14:50:14.805Z,98575.92
2018-09-06T14:52:55.429Z,98580.45
2018-09-06T14:55:34.559Z,98576.03
2018-09-06T14:58:09.132Z,98570.23
2018-09-06T15:00:43.774Z,98580.33
2018-09-06T15:03:18.588Z,98583.91
2018-09-06T15:05:53.220Z,98577.36
2018-09-06T15:08:27.900Z,98585.63
2018-09-06T15:11:02.448Z,98582.97
2018-09-06T15:13:37.840Z,98580.20
2018-09-06T15:16:12.609Z,98580.55
2018-09-06T15:18:47.765Z,98576.80
2018-09-06T15:21:22.589Z,98573.22
2018-09-06T15:23:57.048Z,98575.73
2018-09-06T15:26:56.590Z,98570.20
2018-09-06T15:29:31.165Z,98571.50
2018-09-06T15:32:06.063Z,98571.00
2018-09-06T15:34:41.168Z,98571.39
2018-09-06T15:37:15.987Z,98565.03
2018-09-06T15:39:50.698Z,98565.53
2018-09-06T15:42:26.520Z,98557.28
2018-09-06T15:45:01.152Z,98561.83
2018-09-06T15:47:35.720Z,98557.66
2018-09-06T15:50:10.347Z,98548.53
2018-09-06T15:52:45.159Z,98547.64
2018-09-06T15:55:19.771Z,98550.77
2018-09-06T15:57:54.320Z,98554.45
2018-09-06T16:00:29.221Z,98550.12
2018-09-06T16:03:03.568Z,98547.05
2018-09-06T16:05:38.101Z,98551.66
2018-09-06T16:08:12.573Z,98549.39
2018-09-06T16:10:47.036Z,98555.82
2018-09-06T16:13:23.025Z,98545.40
2018-09-06T16:15:58.023Z,98547.39
2018-09-06T16:18:34.644Z,98546.22
2018-09-06T16:21:09.353Z,98542.95
2018-09-06T16:23:44.098Z,98543.71
2018-09-06T16:26:18.725Z,98543.05
2018-09-06T16:28:53.821Z,98544.41
2018-09-06T16:31:28.569Z,98547.13
2018-09-06T16:34:03.177Z,98556.08
2018-09-06T16:36:37.797Z,98560.72
2018-09-06T16:39:12.819Z,98554.80
2018-09-06T16:41:47.481Z,98557.13
2018-09-06T16:44:22.025Z,98555.05
2018-09-06T16:46:56.983Z,98554.50
2018-09-06T16:49:31.707Z,98563.55
2018-09-06T16:52:06.317Z,98556.30
2018-09-06T16:54:40.853Z,98563.84
2018-09-06T16:57:15.669Z,98565.47
2018-09-06T16:59:50.337Z,98566.30
2018-09-06T17:02:25.052Z,98566.26
2018-09-06T17:05:00.394Z,98566.47
2018-09-06T17:07:35.289Z,98565.05
2018-09-06T17:10:09.856Z,98568.76
2018-09-06T17:12:44.416Z,98559.45
2018-09-06T17:15:19.373Z,98563.75
2018-09-06T17:17:53.948Z,98563.00
2018-09-06T17:20:29.067Z,98571.72
2018-09-06T17:23:03.818Z,98575.21
2018-09-06T17:25:38.582Z,98567.17
2018-09-06T17:28:13.502Z,98567.96
2018-09-06T17:30:48.829Z,98570.72
2018-09-06T17:33:23.784Z,98576.96
2018-09-06T17:35:59.220Z,98578.88
2018-09-06T17:38:34.102Z,98586.33
2018-09-06T17:41:08.521Z,98586.77
2018-09-06T17:43:43.197Z,98588.56
2018-09-06T17:46:18.121Z,98594.59
2018-09-06T17:48:52.984Z,98596.29
2018-09-06T17:51:27.648Z,98594.67
2018-09-06T17:54:02.318Z,98592.73
2018-09-06T17:56:37.097Z,98599.98
2018-09-06T17:59:11.660Z,98601.20
2018-09-06T18:01:46.157Z,98602.89
2018-09-06T18:04:20.725Z,98597.66
2018-09-06T18:06:55.484Z,98593.91
2018-09-06T18:09:30.134Z,98596.39
2018-09-06T18:12:05.473Z,98595.42
2018-09-06T18:14:40.211Z,98596.16
2018-09-06T18:17:14.910Z,98602.75
2018-09-06T18:19:49.599Z,98603.84
2018-09-06T18:22:24.289Z,98601.13
2018-09-06T18:24:58.962Z,98606.92
2018-09-06T18:27:33.652Z,98613.77
2018-09-06T18:30:08.268Z,98616.78
2018-09-06T18:32:42.852Z,98615.70
2018-09-06T18:35:17.765Z,98619.11
2018-09-06T18:37:52.442Z,98620.59
2018-09-06T18:40:27.011Z,98623.34
2018-09-06T18:43:01.564Z,98622.41
2018-09-06T18:45:36.213Z,98632.66
2018-09-06T18:48:10.895Z,98636.48
2018-09-06T18:50:45.553Z,98642.47
2018-09-06T18:53:20.173Z,98647.42
2018-09-06T18:55:54.870Z,98653.55
2018-09-06T18:58:29.669Z,98642.28
2018-09-06T19:01:04.494Z,98646.73
2018-09-06T19:03:39.266Z,98653.07
2018-09-06T19:06:13.973Z,98650.05
2018-09-06T19:08:49.059Z,98641.61
2018-09-06T19:11:23.813Z,98654.80
2018-09-06T19:13:58.540Z,98652.65
2018-09-06T19:16:33.384Z,98651.11
2018-09-06T19:19:07.817Z,98655.81
2018-09-06T19:21:42.417Z,98662.14
2018-09-06T19:24:17.260Z,98664.21
2018-09-06T19:26:51.925Z,98664.26
2018-09-06T19:29:26.547Z,98664.96
2018-09-06T19:32:01.127Z,98665.67
2018-09-06T19:34:35.660Z,98667.84
2018-09-06T19:37:10.566Z,98663.07
2018-09-06T19:39:45.109Z,98664.44
2018-09-06T19:42:19.744Z,98668.23
2018-09-06T19:44:54.394Z,98668.02
2018-09-06T19:47:29.189Z,98669.33
2018-09-06T19:50:03.822Z,98670.13
2018-09-06T19:52:38.378Z,98673.47
2018-09-06T19:55:12.929Z,98672.67
2018-09-06T19:57:47.716Z,98675.66
2018-09-06T20:00:22.340Z,98682.52
2018-09-06T20:02:56.944Z,98687.80
2018-09-06T20:05:31.561Z,98690.43
2018-09-06T20:08:06.388Z,98688.98
2018-09-06T20:10:41.065Z,98690.58
2018-09-06T20:13:15.813Z,98689.20
2018-09-06T20:15:50.373Z,98690.03
2018-09-06T20:18:25.136Z,98695.59
2018-09-06T20:20:59.753Z,98691.49
2018-09-06T20:23:34.416Z,98690.91
2018-09-06T20:26:09.195Z,98697.77
2018-09-06T20:28:43.852Z,98699.61
2018-09-06T20:31:18.468Z,98696.42
2018-09-06T20:33:53.129Z,98700.99
2018-09-06T20:36:27.721Z,98698.03
2018-09-06T20:39:02.340Z,98700.17
2018-09-06T20:41:36.803Z,98698.70
2018-09-06T20:44:11.371Z,98702.36
2018-09-06T20:46:45.846Z,98693.37
2018-09-06T20:49:20.444Z,98701.36
2018-09-06T20:51:55.201Z,98702.61
2018-09-06T20:54:29.729Z,98698.63
2018-09-06T20:57:04.659Z,98701.70
2018-09-06T20:59:39.348Z,98699.07
2018-09-06T21:02:19.425Z,98696.67
2018-09-06T21:04:54.606Z,98701.45
2018-09-06T21:07:29.203Z,98697.68
2018-09-06T21:10:04.380Z,98697.11
2018-09-06T21:12:38.936Z,98697.79
2018-09-06T21:15:13.688Z,98696.20
2018-09-06T21:17:48.248Z,98698.15
2018-09-06T21:20:22.772Z,98699.63
2018-09-06T21:22:57.385Z,98704.41
2018-09-06T21:25:31.954Z,98699.16
2018-09-06T21:28:06.708Z,98707.81
2018-09-06T21:30:41.253Z,98704.73
2018-09-06T21:33:15.855Z,98704.39
2018-09-06T21:35:50.575Z,98705.41
2018-09-06T21:38:25.252Z,98705.89
2018-09-06T21:40:59.953Z,98703.61
2018-09-06T21:43:34.649Z,98705.66
2018-09-06T21:46:09.233Z,98704.30
2018-09-06T21:48:43.784Z,98705.45
2018-09-06T21:51:18.577Z,98703.52
2018-09-06T21:53:53.251Z,98706.70
2018-09-06T21:56:27.753Z,98702.14
2018-09-06T21:59:02.441Z,98706.36
2018-09-06T22:01:37.474Z,98706.25
2018-09-06T22:04:12.186Z,98709.67
2018-09-06T22:06:46.976Z,98715.38
2018-09-06T22:09:21.346Z,98712.97
2018-09-06T22:11:55.996Z,98713.42
2018-09-06T22:14:30.581Z,98717.28
2018-09-06T22:17:05.452Z,98716.16
2018-09-06T22:19:40.173Z,98714.20
2018-09-06T22:22:14.792Z,98717.38
2018-09-06T22:24:49.459Z,98712.45
2018-09-06T22:27:24.083Z,98714.50
2018-09-06T22:29:58.814Z,98708.49
2018-09-06T22:32:33.437Z,98711.91
2018-09-06T22:35:08.344Z,98711.23
2018-09-06T22:37:43.468Z,98716.59
2018-09-06T22:40:18.318Z,98713.84
2018-09-06T22:42:52.989Z,98711.77
2018-09-06T22:45:27.664Z,98704.25
2018-09-06T22:48:02.598Z,98704.27
2018-09-06T22:50:37.361Z,98708.48
2018-09-06T22:53:11.976Z,98708.41
2018-09-06T22:55:46.504Z,98705.55
2018-09-06T22:58:21.122Z,98703.39
2018-09-06T23:00:55.745Z,98697.02
2018-09-06T23:03:35.542Z,98694.53
2018-09-06T23:06:10.201Z,98699.52
2018-09-06T23:08:44.907Z,98690.19
2018-09-06T23:11:19.881Z,98696.68
2018-09-06T23:13:54.589Z,98697.22
2018-09-06T23:16:29.281Z,98697.33
2018-09-06T23:19:04.025Z,98698.02
2018-09-06T23:21:38.677Z,98702.34
2018-09-06T23:24:25.224Z,98701.12
2018-09-06T23:26:59.763Z,98698.84
2018-09-06T23:29:34.244Z,98687.91
2018-09-06T23:32:09.313Z,98681.30
2018-09-06T23:34:44.010Z,98677.09
2018-09-06T23:37:18.624Z,98680.97
2018-09-06T23:39:53.608Z,98675.50
2018-09-06T23:42:28.481Z,98679.23
2018-09-06T23:45:03.088Z,98682.64
2018-09-06T23:47:37.757Z,98681.39
2018-09-06T23:50:12.397Z,98683.09
2018-09-06T23:52:47.168Z,98680.36
2018-09-06T23:55:22.309Z,98673.08
2018-09-06T23:57:57.020Z,98669.66
